Ballarat, Australia
Current Conditions -  °F | °C
As of 7:30 PM on Saturday 22 Nov 2014 (Local Time) from YMAV Reporting Station
Broken Clouds Broken Clouds  
Wind Chill: 86°   Ceiling: 12000
Heat Index: 86°   Visibility: 6mi
Dew Point: 48°   Wind: 24mph
Humidity: 27%   Direction: 330°NNW
Pressure: 29.65"   Gusts: 36mph
Location:  37.56°S, 143.86°E
Report Text: YMAV 220830Z AUTO 33021G31KT 9999 // BKN120 30/09 Q1004
Loading
Personal Weather Stations






























Interactive Weather Map New forecast layout! Learn more

10-Day Weather Forecast

Advertisements
Track Severe Weather on mobile